sensor_id;sensor_type;location;lat;lon;timestamp;P1;durP1;ratioP1;P2;durP2;ratioP2
12556;SDS011;6344;49.932;8.308;2023-07-28T00:00:41;4.50;;;4.10;;
12556;SDS011;6344;49.932;8.308;2023-07-28T00:03:08;4.67;;;4.30;;
12556;SDS011;6344;49.932;8.308;2023-07-28T00:05:35;5.90;;;5.30;;
12556;SDS011;6344;49.932;8.308;2023-07-28T00:08:04;4.30;;;4.00;;
12556;SDS011;6344;49.932;8.308;2023-07-28T00:10:31;4.77;;;4.37;;
12556;SDS011;6344;49.932;8.308;2023-07-28T00:12:58;5.40;;;4.63;;
12556;SDS011;6344;49.932;8.308;2023-07-28T00:15:27;7.73;;;5.13;;
12556;SDS011;6344;49.932;8.308;2023-07-28T00:17:54;6.83;;;5.57;;
12556;SDS011;6344;49.932;8.308;2023-07-28T00:20:22;5.67;;;5.10;;
12556;SDS011;6344;49.932;8.308;2023-07-28T00:22:49;4.87;;;4.37;;
12556;SDS011;6344;49.932;8.308;2023-07-28T00:25:18;6.70;;;5.10;;
12556;SDS011;6344;49.932;8.308;2023-07-28T00:27:45;5.10;;;4.70;;
12556;SDS011;6344;49.932;8.308;2023-07-28T00:30:12;6.73;;;4.63;;
12556;SDS011;6344;49.932;8.308;2023-07-28T00:32:39;4.73;;;4.33;;
12556;SDS011;6344;49.932;8.308;2023-07-28T00:35:06;5.40;;;5.00;;
12556;SDS011;6344;49.932;8.308;2023-07-28T00:37:33;5.20;;;4.80;;
12556;SDS011;6344;49.932;8.308;2023-07-28T00:40:00;5.07;;;4.67;;
12556;SDS011;6344;49.932;8.308;2023-07-28T00:42:28;6.20;;;4.80;;
12556;SDS011;6344;49.932;8.308;2023-07-28T00:44:55;4.80;;;4.40;;
12556;SDS011;6344;49.932;8.308;2023-07-28T00:47:22;5.43;;;5.00;;
12556;SDS011;6344;49.932;8.308;2023-07-28T00:49:50;5.50;;;4.60;;
12556;SDS011;6344;49.932;8.308;2023-07-28T00:52:17;6.13;;;5.63;;
12556;SDS011;6344;49.932;8.308;2023-07-28T00:54:44;4.83;;;4.43;;
12556;SDS011;6344;49.932;8.308;2023-07-28T00:57:11;5.73;;;5.23;;
12556;SDS011;6344;49.932;8.308;2023-07-28T00:59:39;5.20;;;4.70;;
12556;SDS011;6344;49.932;8.308;2023-07-28T01:02:06;5.23;;;4.73;;
12556;SDS011;6344;49.932;8.308;2023-07-28T01:04:33;5.63;;;4.50;;
12556;SDS011;6344;49.932;8.308;2023-07-28T01:07:02;5.50;;;4.90;;
12556;SDS011;6344;49.932;8.308;2023-07-28T01:09:34;4.73;;;4.30;;
12556;SDS011;6344;49.932;8.308;2023-07-28T01:12:06;4.67;;;4.17;;
12556;SDS011;6344;49.932;8.308;2023-07-28T01:14:33;5.30;;;4.67;;
12556;SDS011;6344;49.932;8.308;2023-07-28T01:17:02;4.53;;;4.20;;
12556;SDS011;6344;49.932;8.308;2023-07-28T01:19:29;5.63;;;5.10;;
12556;SDS011;6344;49.932;8.308;2023-07-28T01:21:57;5.30;;;4.57;;
12556;SDS011;6344;49.932;8.308;2023-07-28T01:24:34;5.90;;;5.30;;
12556;SDS011;6344;49.932;8.308;2023-07-28T01:27:06;4.40;;;4.10;;
12556;SDS011;6344;49.932;8.308;2023-07-28T01:29:33;4.60;;;4.20;;
12556;SDS011;6344;49.932;8.308;2023-07-28T01:32:01;4.27;;;3.80;;
12556;SDS011;6344;49.932;8.308;2023-07-28T01:34:28;4.97;;;4.57;;
12556;SDS011;6344;49.932;8.308;2023-07-28T01:36:55;4.63;;;4.23;;
12556;SDS011;6344;49.932;8.308;2023-07-28T01:39:22;6.70;;;4.60;;
12556;SDS011;6344;49.932;8.308;2023-07-28T01:41:49;4.60;;;4.20;;
12556;SDS011;6344;49.932;8.308;2023-07-28T01:44:18;4.70;;;4.30;;
12556;SDS011;6344;49.932;8.308;2023-07-28T01:46:45;4.73;;;4.33;;
12556;SDS011;6344;49.932;8.308;2023-07-28T01:49:12;6.00;;;5.50;;
12556;SDS011;6344;49.932;8.308;2023-07-28T01:51:39;4.77;;;4.30;;
12556;SDS011;6344;49.932;8.308;2023-07-28T01:54:06;5.73;;;5.23;;
12556;SDS011;6344;49.932;8.308;2023-07-28T01:56:33;5.10;;;4.57;;
12556;SDS011;6344;49.932;8.308;2023-07-28T01:59:00;5.00;;;4.60;;
12556;SDS011;6344;49.932;8.308;2023-07-28T02:01:28;5.00;;;4.60;;
12556;SDS011;6344;49.932;8.308;2023-07-28T02:03:55;4.93;;;4.53;;
12556;SDS011;6344;49.932;8.308;2023-07-28T02:06:22;6.33;;;5.73;;
12556;SDS011;6344;49.932;8.308;2023-07-28T02:08:49;5.43;;;5.03;;
12556;SDS011;6344;49.932;8.308;2023-07-28T02:11:16;5.37;;;4.90;;
12556;SDS011;6344;49.932;8.308;2023-07-28T02:13:43;5.67;;;5.03;;
12556;SDS011;6344;49.932;8.308;2023-07-28T02:16:10;5.93;;;4.63;;
12556;SDS011;6344;49.932;8.308;2023-07-28T02:18:38;5.90;;;5.40;;
12556;SDS011;6344;49.932;8.308;2023-07-28T02:21:07;5.73;;;5.23;;
12556;SDS011;6344;49.932;8.308;2023-07-28T02:23:34;6.50;;;5.20;;
12556;SDS011;6344;49.932;8.308;2023-07-28T02:26:02;5.40;;;5.00;;
12556;SDS011;6344;49.932;8.308;2023-07-28T02:28:29;6.43;;;5.83;;
12556;SDS011;6344;49.932;8.308;2023-07-28T02:30:56;5.80;;;4.97;;
12556;SDS011;6344;49.932;8.308;2023-07-28T02:33:23;6.10;;;5.60;;
12556;SDS011;6344;49.932;8.308;2023-07-28T02:35:51;5.60;;;5.10;;
12556;SDS011;6344;49.932;8.308;2023-07-28T02:38:18;5.40;;;5.00;;
12556;SDS011;6344;49.932;8.308;2023-07-28T02:40:45;6.07;;;5.40;;
12556;SDS011;6344;49.932;8.308;2023-07-28T02:43:12;5.40;;;5.00;;
12556;SDS011;6344;49.932;8.308;2023-07-28T02:45:39;6.90;;;6.30;;
12556;SDS011;6344;49.932;8.308;2023-07-28T02:48:07;5.33;;;4.93;;
12556;SDS011;6344;49.932;8.308;2023-07-28T02:50:34;6.10;;;5.60;;
12556;SDS011;6344;49.932;8.308;2023-07-28T02:53:02;5.27;;;4.87;;
12556;SDS011;6344;49.932;8.308;2023-07-28T02:55:29;6.43;;;5.83;;
12556;SDS011;6344;49.932;8.308;2023-07-28T02:57:56;5.67;;;5.17;;
12556;SDS011;6344;49.932;8.308;2023-07-28T03:00:23;5.40;;;5.00;;
12556;SDS011;6344;49.932;8.308;2023-07-28T03:02:50;4.83;;;4.30;;
12556;SDS011;6344;49.932;8.308;2023-07-28T03:05:17;6.60;;;5.30;;
12556;SDS011;6344;49.932;8.308;2023-07-28T03:07:47;5.23;;;4.83;;
12556;SDS011;6344;49.932;8.308;2023-07-28T03:10:16;6.90;;;4.80;;
12556;SDS011;6344;49.932;8.308;2023-07-28T03:12:43;5.10;;;4.70;;
12556;SDS011;6344;49.932;8.308;2023-07-28T03:15:10;5.77;;;5.33;;
12556;SDS011;6344;49.932;8.308;2023-07-28T03:17:36;6.37;;;5.53;;
12556;SDS011;6344;49.932;8.308;2023-07-28T03:20:04;5.97;;;5.37;;
12556;SDS011;6344;49.932;8.308;2023-07-28T03:22:31;5.60;;;5.20;;
12556;SDS011;6344;49.932;8.308;2023-07-28T03:24:58;5.13;;;4.73;;
12556;SDS011;6344;49.932;8.308;2023-07-28T03:27:26;5.17;;;4.67;;
12556;SDS011;6344;49.932;8.308;2023-07-28T03:29:53;6.00;;;5.50;;
12556;SDS011;6344;49.932;8.308;2023-07-28T03:32:20;5.17;;;4.67;;
12556;SDS011;6344;49.932;8.308;2023-07-28T03:34:47;6.67;;;4.33;;
12556;SDS011;6344;49.932;8.308;2023-07-28T03:37:14;5.07;;;4.53;;
12556;SDS011;6344;49.932;8.308;2023-07-28T03:39:41;5.10;;;4.70;;
12556;SDS011;6344;49.932;8.308;2023-07-28T03:42:08;4.53;;;4.13;;
12556;SDS011;6344;49.932;8.308;2023-07-28T03:44:37;4.60;;;4.20;;
12556;SDS011;6344;49.932;8.308;2023-07-28T03:47:05;5.07;;;4.67;;
12556;SDS011;6344;49.932;8.308;2023-07-28T03:49:32;3.90;;;3.60;;
12556;SDS011;6344;49.932;8.308;2023-07-28T03:51:59;4.23;;;3.93;;
12556;SDS011;6344;49.932;8.308;2023-07-28T03:54:26;5.17;;;4.60;;
12556;SDS011;6344;49.932;8.308;2023-07-28T03:56:53;4.27;;;3.90;;
12556;SDS011;6344;49.932;8.308;2023-07-28T03:59:20;4.17;;;3.80;;
12556;SDS011;6344;49.932;8.308;2023-07-28T04:01:48;5.23;;;4.40;;
12556;SDS011;6344;49.932;8.308;2023-07-28T04:04:15;3.77;;;3.57;;
12556;SDS011;6344;49.932;8.308;2023-07-28T04:06:42;3.47;;;3.17;;
12556;SDS011;6344;49.932;8.308;2023-07-28T04:09:10;3.37;;;3.07;;
12556;SDS011;6344;49.932;8.308;2023-07-28T04:11:37;4.20;;;3.90;;
12556;SDS011;6344;49.932;8.308;2023-07-28T04:14:04;3.50;;;3.20;;
12556;SDS011;6344;49.932;8.308;2023-07-28T04:16:31;3.90;;;3.50;;
12556;SDS011;6344;49.932;8.308;2023-07-28T04:19:00;6.90;;;3.50;;
12556;SDS011;6344;49.932;8.308;2023-07-28T04:21:27;4.73;;;4.00;;
12556;SDS011;6344;49.932;8.308;2023-07-28T04:23:54;2.80;;;2.60;;
12556;SDS011;6344;49.932;8.308;2023-07-28T04:26:22;3.73;;;3.43;;
12556;SDS011;6344;49.932;8.308;2023-07-28T04:28:49;5.20;;;3.50;;
12556;SDS011;6344;49.932;8.308;2023-07-28T04:31:17;2.87;;;2.57;;
12556;SDS011;6344;49.932;8.308;2023-07-28T04:33:44;3.10;;;2.90;;
12556;SDS011;6344;49.932;8.308;2023-07-28T04:36:12;6.60;;;3.17;;
12556;SDS011;6344;49.932;8.308;2023-07-28T04:38:39;3.20;;;2.90;;
12556;SDS011;6344;49.932;8.308;2023-07-28T04:41:06;3.10;;;2.90;;
12556;SDS011;6344;49.932;8.308;2023-07-28T04:43:33;2.90;;;2.63;;
12556;SDS011;6344;49.932;8.308;2023-07-28T04:46:00;5.10;;;3.13;;
12556;SDS011;6344;49.932;8.308;2023-07-28T04:48:27;3.10;;;2.90;;
12556;SDS011;6344;49.932;8.308;2023-07-28T04:50:54;3.77;;;3.37;;
12556;SDS011;6344;49.932;8.308;2023-07-28T04:53:22;2.50;;;2.33;;
12556;SDS011;6344;49.932;8.308;2023-07-28T04:55:49;4.40;;;2.67;;
12556;SDS011;6344;49.932;8.308;2023-07-28T04:58:16;4.43;;;3.37;;
12556;SDS011;6344;49.932;8.308;2023-07-28T05:00:43;2.83;;;2.63;;
12556;SDS011;6344;49.932;8.308;2023-07-28T05:03:10;3.20;;;2.90;;
12556;SDS011;6344;49.932;8.308;2023-07-28T05:05:37;3.70;;;2.90;;
12556;SDS011;6344;49.932;8.308;2023-07-28T05:08:04;3.30;;;2.87;;
12556;SDS011;6344;49.932;8.308;2023-07-28T05:10:33;2.90;;;2.70;;
12556;SDS011;6344;49.932;8.308;2023-07-28T05:13:00;3.03;;;2.77;;
12556;SDS011;6344;49.932;8.308;2023-07-28T05:15:29;3.00;;;2.70;;
12556;SDS011;6344;49.932;8.308;2023-07-28T05:17:56;3.30;;;3.00;;
12556;SDS011;6344;49.932;8.308;2023-07-28T05:20:23;3.37;;;3.17;;
12556;SDS011;6344;49.932;8.308;2023-07-28T05:22:50;3.33;;;3.03;;
12556;SDS011;6344;49.932;8.308;2023-07-28T05:25:17;3.50;;;2.90;;
12556;SDS011;6344;49.932;8.308;2023-07-28T05:27:45;3.40;;;3.10;;
12556;SDS011;6344;49.932;8.308;2023-07-28T05:30:12;4.03;;;3.40;;
12556;SDS011;6344;49.932;8.308;2023-07-28T05:32:39;3.20;;;3.00;;
12556;SDS011;6344;49.932;8.308;2023-07-28T05:35:07;3.40;;;3.20;;
12556;SDS011;6344;49.932;8.308;2023-07-28T05:37:34;2.90;;;2.70;;
12556;SDS011;6344;49.932;8.308;2023-07-28T05:40:01;3.10;;;2.90;;
12556;SDS011;6344;49.932;8.308;2023-07-28T05:42:28;3.30;;;3.00;;
12556;SDS011;6344;49.932;8.308;2023-07-28T05:44:56;2.77;;;2.57;;
12556;SDS011;6344;49.932;8.308;2023-07-28T05:47:23;2.77;;;2.57;;
12556;SDS011;6344;49.932;8.308;2023-07-28T05:49:50;3.20;;;3.00;;
12556;SDS011;6344;49.932;8.308;2023-07-28T05:52:18;2.97;;;2.67;;
12556;SDS011;6344;49.932;8.308;2023-07-28T05:54:47;4.07;;;2.47;;
12556;SDS011;6344;49.932;8.308;2023-07-28T05:57:14;2.50;;;2.40;;
12556;SDS011;6344;49.932;8.308;2023-07-28T05:59:41;2.30;;;2.07;;
12556;SDS011;6344;49.932;8.308;2023-07-28T06:02:09;2.07;;;1.97;;
12556;SDS011;6344;49.932;8.308;2023-07-28T06:04:36;2.13;;;1.90;;
12556;SDS011;6344;49.932;8.308;2023-07-28T06:07:03;2.27;;;1.80;;
12556;SDS011;6344;49.932;8.308;2023-07-28T06:09:30;2.47;;;1.97;;
12556;SDS011;6344;49.932;8.308;2023-07-28T06:11:58;2.60;;;2.40;;
12556;SDS011;6344;49.932;8.308;2023-07-28T06:14:25;2.40;;;2.07;;
12556;SDS011;6344;49.932;8.308;2023-07-28T06:16:52;2.20;;;1.90;;
12556;SDS011;6344;49.932;8.308;2023-07-28T06:19:20;7.13;;;1.50;;
12556;SDS011;6344;49.932;8.308;2023-07-28T06:21:49;1.80;;;1.70;;
12556;SDS011;6344;49.932;8.308;2023-07-28T06:24:16;1.77;;;1.67;;
12556;SDS011;6344;49.932;8.308;2023-07-28T06:26:43;1.60;;;1.50;;
12556;SDS011;6344;49.932;8.308;2023-07-28T06:29:10;2.80;;;1.73;;
12556;SDS011;6344;49.932;8.308;2023-07-28T06:31:37;1.93;;;1.30;;
12556;SDS011;6344;49.932;8.308;2023-07-28T06:34:05;1.83;;;1.60;;
12556;SDS011;6344;49.932;8.308;2023-07-28T06:36:33;1.97;;;1.57;;
12556;SDS011;6344;49.932;8.308;2023-07-28T06:38:59;1.70;;;1.43;;
12556;SDS011;6344;49.932;8.308;2023-07-28T06:41:26;1.90;;;1.53;;
12556;SDS011;6344;49.932;8.308;2023-07-28T06:43:53;1.73;;;1.63;;
12556;SDS011;6344;49.932;8.308;2023-07-28T06:46:20;1.50;;;1.40;;
12556;SDS011;6344;49.932;8.308;2023-07-28T06:48:47;1.50;;;1.40;;
12556;SDS011;6344;49.932;8.308;2023-07-28T06:51:14;1.60;;;1.50;;
12556;SDS011;6344;49.932;8.308;2023-07-28T06:53:42;1.83;;;1.73;;
12556;SDS011;6344;49.932;8.308;2023-07-28T06:56:09;5.67;;;1.40;;
12556;SDS011;6344;49.932;8.308;2023-07-28T06:58:36;4.60;;;1.50;;
12556;SDS011;6344;49.932;8.308;2023-07-28T07:01:03;1.60;;;1.50;;
12556;SDS011;6344;49.932;8.308;2023-07-28T07:03:30;2.40;;;1.27;;
12556;SDS011;6344;49.932;8.308;2023-07-28T07:05:57;2.17;;;1.30;;
12556;SDS011;6344;49.932;8.308;2023-07-28T07:08:24;1.67;;;1.27;;
12556;SDS011;6344;49.932;8.308;2023-07-28T07:10:53;1.33;;;1.23;;
12556;SDS011;6344;49.932;8.308;2023-07-28T07:13:20;1.77;;;1.37;;
12556;SDS011;6344;49.932;8.308;2023-07-28T07:15:47;1.63;;;1.53;;
12556;SDS011;6344;49.932;8.308;2023-07-28T07:18:14;1.40;;;1.30;;
12556;SDS011;6344;49.932;8.308;2023-07-28T07:20:41;1.53;;;1.43;;
12556;SDS011;6344;49.932;8.308;2023-07-28T07:23:09;1.30;;;1.20;;
12556;SDS011;6344;49.932;8.308;2023-07-28T07:25:37;1.30;;;1.20;;
12556;SDS011;6344;49.932;8.308;2023-07-28T07:28:05;1.70;;;1.57;;
12556;SDS011;6344;49.932;8.308;2023-07-28T07:30:32;1.30;;;1.13;;
12556;SDS011;6344;49.932;8.308;2023-07-28T07:32:59;1.60;;;1.50;;
12556;SDS011;6344;49.932;8.308;2023-07-28T07:35:26;1.50;;;1.40;;
12556;SDS011;6344;49.932;8.308;2023-07-28T07:37:53;1.30;;;1.20;;
12556;SDS011;6344;49.932;8.308;2023-07-28T07:40:20;1.30;;;1.20;;
12556;SDS011;6344;49.932;8.308;2023-07-28T07:42:48;3.00;;;1.33;;
12556;SDS011;6344;49.932;8.308;2023-07-28T07:45:18;3.03;;;1.30;;
12556;SDS011;6344;49.932;8.308;2023-07-28T07:47:45;1.53;;;1.43;;
12556;SDS011;6344;49.932;8.308;2023-07-28T07:50:12;1.40;;;1.30;;
12556;SDS011;6344;49.932;8.308;2023-07-28T07:52:39;1.83;;;1.47;;
12556;SDS011;6344;49.932;8.308;2023-07-28T07:55:06;2.23;;;1.00;;
12556;SDS011;6344;49.932;8.308;2023-07-28T07:57:33;1.40;;;1.27;;
12556;SDS011;6344;49.932;8.308;2023-07-28T08:00:00;1.40;;;1.30;;
12556;SDS011;6344;49.932;8.308;2023-07-28T08:02:29;1.40;;;1.30;;
12556;SDS011;6344;49.932;8.308;2023-07-28T08:04:56;1.20;;;1.10;;
12556;SDS011;6344;49.932;8.308;2023-07-28T08:07:23;1.50;;;1.40;;
12556;SDS011;6344;49.932;8.308;2023-07-28T08:09:50;1.33;;;1.23;;
12556;SDS011;6344;49.932;8.308;2023-07-28T08:12:18;1.30;;;1.20;;
12556;SDS011;6344;49.932;8.308;2023-07-28T08:14:45;1.30;;;1.20;;
12556;SDS011;6344;49.932;8.308;2023-07-28T08:17:12;1.40;;;1.30;;
12556;SDS011;6344;49.932;8.308;2023-07-28T08:19:40;1.20;;;1.10;;
12556;SDS011;6344;49.932;8.308;2023-07-28T08:22:07;1.57;;;1.40;;
12556;SDS011;6344;49.932;8.308;2023-07-28T08:24:34;1.30;;;1.20;;
12556;SDS011;6344;49.932;8.308;2023-07-28T08:27:01;1.93;;;1.30;;
12556;SDS011;6344;49.932;8.308;2023-07-28T08:29:28;1.83;;;1.20;;
12556;SDS011;6344;49.932;8.308;2023-07-28T08:31:55;1.53;;;1.43;;
12556;SDS011;6344;49.932;8.308;2023-07-28T08:34:22;1.40;;;1.30;;
12556;SDS011;6344;49.932;8.308;2023-07-28T08:36:51;1.33;;;1.23;;
12556;SDS011;6344;49.932;8.308;2023-07-28T08:39:18;1.30;;;1.20;;
12556;SDS011;6344;49.932;8.308;2023-07-28T08:41:45;1.50;;;1.40;;
12556;SDS011;6344;49.932;8.308;2023-07-28T08:44:12;1.87;;;1.40;;
12556;SDS011;6344;49.932;8.308;2023-07-28T08:46:39;1.50;;;1.40;;
12556;SDS011;6344;49.932;8.308;2023-07-28T08:49:06;1.40;;;1.30;;
12556;SDS011;6344;49.932;8.308;2023-07-28T08:51:33;1.40;;;1.30;;
12556;SDS011;6344;49.932;8.308;2023-07-28T08:54:01;2.00;;;1.20;;
12556;SDS011;6344;49.932;8.308;2023-07-28T08:56:28;1.40;;;1.30;;
12556;SDS011;6344;49.932;8.308;2023-07-28T08:58:57;1.47;;;1.37;;
12556;SDS011;6344;49.932;8.308;2023-07-28T09:01:25;1.50;;;1.40;;
12556;SDS011;6344;49.932;8.308;2023-07-28T09:03:52;1.60;;;1.50;;
12556;SDS011;6344;49.932;8.308;2023-07-28T09:06:19;1.50;;;1.40;;
12556;SDS011;6344;49.932;8.308;2023-07-28T09:08:56;1.50;;;1.40;;
12556;SDS011;6344;49.932;8.308;2023-07-28T09:11:24;3.10;;;1.57;;
12556;SDS011;6344;49.932;8.308;2023-07-28T09:13:53;1.40;;;1.30;;
12556;SDS011;6344;49.932;8.308;2023-07-28T09:16:21;1.40;;;1.30;;
12556;SDS011;6344;49.932;8.308;2023-07-28T09:18:49;1.80;;;1.70;;
12556;SDS011;6344;49.932;8.308;2023-07-28T09:21:17;1.57;;;1.47;;
12556;SDS011;6344;49.932;8.308;2023-07-28T09:23:45;1.50;;;1.40;;
12556;SDS011;6344;49.932;8.308;2023-07-28T09:26:13;1.77;;;1.67;;
12556;SDS011;6344;49.932;8.308;2023-07-28T09:28:42;1.30;;;1.20;;
12556;SDS011;6344;49.932;8.308;2023-07-28T09:31:09;1.50;;;1.40;;
12556;SDS011;6344;49.932;8.308;2023-07-28T09:33:36;1.90;;;1.80;;
12556;SDS011;6344;49.932;8.308;2023-07-28T09:36:08;1.43;;;1.17;;
12556;SDS011;6344;49.932;8.308;2023-07-28T09:38:36;1.47;;;1.37;;
12556;SDS011;6344;49.932;8.308;2023-07-28T09:41:03;1.40;;;1.30;;
12556;SDS011;6344;49.932;8.308;2023-07-28T09:43:32;1.30;;;1.20;;
12556;SDS011;6344;49.932;8.308;2023-07-28T09:46:01;1.30;;;1.20;;
12556;SDS011;6344;49.932;8.308;2023-07-28T09:48:29;1.50;;;1.40;;
12556;SDS011;6344;49.932;8.308;2023-07-28T09:50:57;2.00;;;1.30;;
12556;SDS011;6344;49.932;8.308;2023-07-28T09:53:25;1.80;;;1.50;;
12556;SDS011;6344;49.932;8.308;2023-07-28T09:55:54;1.83;;;1.73;;
12556;SDS011;6344;49.932;8.308;2023-07-28T09:58:22;1.20;;;1.10;;
12556;SDS011;6344;49.932;8.308;2023-07-28T10:00:49;1.23;;;1.13;;
12556;SDS011;6344;49.932;8.308;2023-07-28T10:03:18;1.40;;;1.30;;
12556;SDS011;6344;49.932;8.308;2023-07-28T10:05:45;1.30;;;1.20;;
12556;SDS011;6344;49.932;8.308;2023-07-28T10:08:12;2.50;;;1.60;;
12556;SDS011;6344;49.932;8.308;2023-07-28T10:10:39;1.40;;;1.30;;
12556;SDS011;6344;49.932;8.308;2023-07-28T10:13:18;1.70;;;1.60;;
12556;SDS011;6344;49.932;8.308;2023-07-28T10:15:45;1.73;;;1.60;;
12556;SDS011;6344;49.932;8.308;2023-07-28T10:18:13;1.40;;;1.30;;
12556;SDS011;6344;49.932;8.308;2023-07-28T10:20:43;1.57;;;1.47;;
12556;SDS011;6344;49.932;8.308;2023-07-28T10:23:14;1.80;;;1.70;;
12556;SDS011;6344;49.932;8.308;2023-07-28T10:25:42;1.40;;;1.30;;
12556;SDS011;6344;49.932;8.308;2023-07-28T10:28:24;1.67;;;1.57;;
12556;SDS011;6344;49.932;8.308;2023-07-28T10:30:53;1.90;;;1.80;;
12556;SDS011;6344;49.932;8.308;2023-07-28T10:33:28;1.77;;;1.67;;
12556;SDS011;6344;49.932;8.308;2023-07-28T10:35:57;2.30;;;2.20;;
12556;SDS011;6344;49.932;8.308;2023-07-28T10:38:30;1.90;;;1.70;;
12556;SDS011;6344;49.932;8.308;2023-07-28T10:41:09;2.00;;;1.90;;
12556;SDS011;6344;49.932;8.308;2023-07-28T10:43:36;2.07;;;1.80;;
12556;SDS011;6344;49.932;8.308;2023-07-28T10:46:04;2.00;;;1.90;;
12556;SDS011;6344;49.932;8.308;2023-07-28T10:48:32;2.03;;;1.93;;
12556;SDS011;6344;49.932;8.308;2023-07-28T10:51:00;2.50;;;2.30;;
12556;SDS011;6344;49.932;8.308;2023-07-28T10:53:27;2.40;;;2.20;;
12556;SDS011;6344;49.932;8.308;2023-07-28T10:55:54;2.37;;;2.20;;
12556;SDS011;6344;49.932;8.308;2023-07-28T10:58:21;2.40;;;2.30;;
12556;SDS011;6344;49.932;8.308;2023-07-28T11:00:50;3.20;;;2.53;;
12556;SDS011;6344;49.932;8.308;2023-07-28T11:03:17;2.57;;;2.47;;
12556;SDS011;6344;49.932;8.308;2023-07-28T11:05:45;2.03;;;1.93;;
12556;SDS011;6344;49.932;8.308;2023-07-28T11:08:13;2.70;;;2.50;;
12556;SDS011;6344;49.932;8.308;2023-07-28T11:10:40;2.60;;;2.40;;
12556;SDS011;6344;49.932;8.308;2023-07-28T11:13:07;2.73;;;2.50;;
12556;SDS011;6344;49.932;8.308;2023-07-28T11:15:34;2.70;;;2.50;;
12556;SDS011;6344;49.932;8.308;2023-07-28T11:18:02;5.43;;;2.73;;
12556;SDS011;6344;49.932;8.308;2023-07-28T11:20:30;3.50;;;3.30;;
12556;SDS011;6344;49.932;8.308;2023-07-28T11:22:57;2.80;;;2.70;;
12556;SDS011;6344;49.932;8.308;2023-07-28T11:25:26;3.50;;;3.20;;
12556;SDS011;6344;49.932;8.308;2023-07-28T11:27:54;3.43;;;3.23;;
12556;SDS011;6344;49.932;8.308;2023-07-28T11:30:22;3.53;;;3.33;;
12556;SDS011;6344;49.932;8.308;2023-07-28T11:32:50;4.10;;;3.80;;
12556;SDS011;6344;49.932;8.308;2023-07-28T11:35:18;3.50;;;3.30;;
12556;SDS011;6344;49.932;8.308;2023-07-28T11:37:45;3.50;;;3.30;;
12556;SDS011;6344;49.932;8.308;2023-07-28T11:40:14;3.70;;;3.50;;
12556;SDS011;6344;49.932;8.308;2023-07-28T11:42:45;3.77;;;3.47;;
12556;SDS011;6344;49.932;8.308;2023-07-28T11:45:12;3.47;;;3.27;;
12556;SDS011;6344;49.932;8.308;2023-07-28T11:47:40;3.80;;;3.60;;
12556;SDS011;6344;49.932;8.308;2023-07-28T11:50:21;4.57;;;4.07;;
12556;SDS011;6344;49.932;8.308;2023-07-28T11:52:48;3.63;;;3.43;;
12556;SDS011;6344;49.932;8.308;2023-07-28T11:55:16;4.17;;;3.87;;
12556;SDS011;6344;49.932;8.308;2023-07-28T11:57:44;4.30;;;4.00;;
12556;SDS011;6344;49.932;8.308;2023-07-28T12:00:11;4.67;;;4.37;;
12556;SDS011;6344;49.932;8.308;2023-07-28T12:02:41;4.60;;;4.30;;
12556;SDS011;6344;49.932;8.308;2023-07-28T12:05:11;4.33;;;4.10;;
12556;SDS011;6344;49.932;8.308;2023-07-28T12:07:38;4.30;;;4.00;;
12556;SDS011;6344;49.932;8.308;2023-07-28T12:10:06;5.70;;;4.00;;
12556;SDS011;6344;49.932;8.308;2023-07-28T12:12:39;3.83;;;3.63;;
12556;SDS011;6344;49.932;8.308;2023-07-28T12:15:19;3.70;;;3.50;;
12556;SDS011;6344;49.932;8.308;2023-07-28T12:18:00;3.90;;;3.70;;
12556;SDS011;6344;49.932;8.308;2023-07-28T12:20:32;4.33;;;4.03;;
12556;SDS011;6344;49.932;8.308;2023-07-28T12:22:59;3.40;;;3.10;;
12556;SDS011;6344;49.932;8.308;2023-07-28T12:25:26;3.40;;;3.10;;
12556;SDS011;6344;49.932;8.308;2023-07-28T12:27:54;3.27;;;3.07;;
12556;SDS011;6344;49.932;8.308;2023-07-28T12:30:23;3.33;;;2.80;;
12556;SDS011;6344;49.932;8.308;2023-07-28T12:32:50;3.10;;;2.90;;
12556;SDS011;6344;49.932;8.308;2023-07-28T12:35:17;3.00;;;2.80;;
12556;SDS011;6344;49.932;8.308;2023-07-28T12:37:46;2.23;;;2.13;;
12556;SDS011;6344;49.932;8.308;2023-07-28T12:40:14;1.90;;;1.80;;
12556;SDS011;6344;49.932;8.308;2023-07-28T12:42:41;2.13;;;2.03;;
12556;SDS011;6344;49.932;8.308;2023-07-28T12:45:08;2.17;;;2.07;;
12556;SDS011;6344;49.932;8.308;2023-07-28T12:47:38;2.37;;;2.27;;
12556;SDS011;6344;49.932;8.308;2023-07-28T12:50:06;2.00;;;1.90;;
12556;SDS011;6344;49.932;8.308;2023-07-28T12:52:33;2.13;;;2.00;;
12556;SDS011;6344;49.932;8.308;2023-07-28T12:55:00;2.27;;;2.00;;
12556;SDS011;6344;49.932;8.308;2023-07-28T12:57:27;1.67;;;1.57;;
12556;SDS011;6344;49.932;8.308;2023-07-28T12:59:54;3.20;;;2.20;;
12556;SDS011;6344;49.932;8.308;2023-07-28T13:02:21;1.90;;;1.80;;
12556;SDS011;6344;49.932;8.308;2023-07-28T13:04:49;2.83;;;2.13;;
12556;SDS011;6344;49.932;8.308;2023-07-28T13:07:16;2.40;;;2.20;;
12556;SDS011;6344;49.932;8.308;2023-07-28T13:09:43;2.03;;;1.93;;
12556;SDS011;6344;49.932;8.308;2023-07-28T13:12:11;2.00;;;1.90;;
12556;SDS011;6344;49.932;8.308;2023-07-28T13:14:38;1.77;;;1.67;;
12556;SDS011;6344;49.932;8.308;2023-07-28T13:17:05;3.00;;;2.20;;
12556;SDS011;6344;49.932;8.308;2023-07-28T13:19:31;2.17;;;1.97;;
12556;SDS011;6344;49.932;8.308;2023-07-28T13:21:59;2.20;;;1.67;;
12556;SDS011;6344;49.932;8.308;2023-07-28T13:24:26;1.60;;;1.50;;
12556;SDS011;6344;49.932;8.308;2023-07-28T13:26:53;1.87;;;1.77;;
12556;SDS011;6344;49.932;8.308;2023-07-28T13:29:19;1.67;;;1.57;;
12556;SDS011;6344;49.932;8.308;2023-07-28T13:31:46;2.60;;;1.97;;
12556;SDS011;6344;49.932;8.308;2023-07-28T13:34:13;1.60;;;1.50;;
12556;SDS011;6344;49.932;8.308;2023-07-28T13:36:39;1.60;;;1.50;;
12556;SDS011;6344;49.932;8.308;2023-07-28T13:39:09;1.70;;;1.60;;
12556;SDS011;6344;49.932;8.308;2023-07-28T13:41:36;1.73;;;1.63;;
12556;SDS011;6344;49.932;8.308;2023-07-28T13:44:03;2.27;;;1.40;;
12556;SDS011;6344;49.932;8.308;2023-07-28T13:46:30;1.80;;;1.70;;
12556;SDS011;6344;49.932;8.308;2023-07-28T13:48:56;2.20;;;1.97;;
12556;SDS011;6344;49.932;8.308;2023-07-28T13:51:23;1.90;;;1.80;;
12556;SDS011;6344;49.932;8.308;2023-07-28T13:53:49;2.23;;;2.00;;
12556;SDS011;6344;49.932;8.308;2023-07-28T13:56:18;1.90;;;1.80;;
12556;SDS011;6344;49.932;8.308;2023-07-28T13:58:44;2.37;;;2.10;;
12556;SDS011;6344;49.932;8.308;2023-07-28T14:01:11;2.30;;;2.20;;
12556;SDS011;6344;49.932;8.308;2023-07-28T14:03:37;2.77;;;2.57;;
12556;SDS011;6344;49.932;8.308;2023-07-28T14:06:04;2.73;;;2.17;;
12556;SDS011;6344;49.932;8.308;2023-07-28T14:08:31;4.00;;;3.37;;
12556;SDS011;6344;49.932;8.308;2023-07-28T14:10:57;2.57;;;2.43;;
12556;SDS011;6344;49.932;8.308;2023-07-28T14:13:25;2.97;;;2.77;;
12556;SDS011;6344;49.932;8.308;2023-07-28T14:15:52;4.80;;;2.63;;
12556;SDS011;6344;49.932;8.308;2023-07-28T14:18:20;2.60;;;2.50;;
12556;SDS011;6344;49.932;8.308;2023-07-28T14:20:46;2.60;;;2.47;;
12556;SDS011;6344;49.932;8.308;2023-07-28T14:23:23;2.50;;;2.30;;
12556;SDS011;6344;49.932;8.308;2023-07-28T14:25:51;2.53;;;2.40;;
12556;SDS011;6344;49.932;8.308;2023-07-28T14:28:18;2.87;;;2.73;;
12556;SDS011;6344;49.932;8.308;2023-07-28T14:30:47;2.33;;;2.23;;
12556;SDS011;6344;49.932;8.308;2023-07-28T14:33:15;2.13;;;2.03;;
12556;SDS011;6344;49.932;8.308;2023-07-28T14:35:43;1.83;;;1.73;;
12556;SDS011;6344;49.932;8.308;2023-07-28T14:38:10;2.07;;;1.97;;
12556;SDS011;6344;49.932;8.308;2023-07-28T14:40:37;2.10;;;2.00;;
12556;SDS011;6344;49.932;8.308;2023-07-28T14:43:05;2.00;;;1.90;;
12556;SDS011;6344;49.932;8.308;2023-07-28T14:45:32;2.30;;;2.20;;
12556;SDS011;6344;49.932;8.308;2023-07-28T14:48:00;2.20;;;2.10;;
12556;SDS011;6344;49.932;8.308;2023-07-28T14:50:27;2.03;;;1.93;;
12556;SDS011;6344;49.932;8.308;2023-07-28T14:52:57;2.20;;;2.10;;
12556;SDS011;6344;49.932;8.308;2023-07-28T14:55:24;1.63;;;1.53;;
12556;SDS011;6344;49.932;8.308;2023-07-28T14:57:51;1.60;;;1.50;;
12556;SDS011;6344;49.932;8.308;2023-07-28T15:00:17;1.67;;;1.50;;
12556;SDS011;6344;49.932;8.308;2023-07-28T15:02:44;2.03;;;1.60;;